createdAt,value
2018-08-24T00:01:11.401Z,67.85
2018-08-24T00:03:39.691Z,67.92
2018-08-24T00:06:07.686Z,67.74
2018-08-24T00:08:35.480Z,68.06
2018-08-24T00:11:03.365Z,68.33
2018-08-24T00:13:31.515Z,67.54
2018-08-24T00:15:59.385Z,67.63
2018-08-24T00:18:27.307Z,68.32
2018-08-24T00:20:55.182Z,68.22
2018-08-24T00:23:23.176Z,68.46
2018-08-24T00:25:50.975Z,68.62
2018-08-24T00:28:18.887Z,68.27
2018-08-24T00:30:46.770Z,68.28
2018-08-24T00:33:14.715Z,68.71
2018-08-24T00:35:43.257Z,67.71
2018-08-24T00:38:11.120Z,68.02
2018-08-24T00:40:38.971Z,68.72
2018-08-24T00:43:07.870Z,68.66
2018-08-24T00:45:35.758Z,68.19
2018-08-24T00:48:03.607Z,68.55
2018-08-24T00:50:31.522Z,68.41
2018-08-24T00:52:59.384Z,69.34
2018-08-24T00:55:27.280Z,68.45
2018-08-24T00:57:55.206Z,69.28
2018-08-24T01:00:27.577Z,69.23
2018-08-24T01:02:55.521Z,69.05
2018-08-24T01:05:23.636Z,68.66
2018-08-24T01:07:57.063Z,68.81
2018-08-24T01:10:25.788Z,68.42
2018-08-24T01:12:54.389Z,67.91
2018-08-24T01:15:22.304Z,67.91
2018-08-24T01:17:55.655Z,68.64
2018-08-24T01:20:28.135Z,68.23
2018-08-24T01:22:56.076Z,68.07
2018-08-24T01:25:23.905Z,68.27
2018-08-24T01:27:51.750Z,67.99
2018-08-24T01:30:19.704Z,68.72
2018-08-24T01:32:47.669Z,68.17
2018-08-24T01:35:15.579Z,68.82
2018-08-24T01:37:43.585Z,68.80
2018-08-24T01:40:11.497Z,68.07
2018-08-24T01:42:39.328Z,67.48
2018-08-24T01:45:07.261Z,67.42
2018-08-24T01:47:35.200Z,68.42
2018-08-24T01:50:03.080Z,67.78
2018-08-24T01:52:30.984Z,68.39
2018-08-24T01:54:58.982Z,68.53
2018-08-24T01:57:27.012Z,68.20
2018-08-24T01:59:54.765Z,68.75
2018-08-24T02:02:23.119Z,69.29
2018-08-24T02:04:51.067Z,69.40
2018-08-24T02:07:18.923Z,69.43
2018-08-24T02:09:46.891Z,70.28
2018-08-24T02:12:20.085Z,69.96
2018-08-24T02:14:47.997Z,70.20
2018-08-24T02:17:21.402Z,71.20
2018-08-24T02:19:54.978Z,71.54
2018-08-24T02:22:22.941Z,70.83
2018-08-24T02:24:50.822Z,70.92
2018-08-24T02:27:19.024Z,69.96
2018-08-24T02:29:47.019Z,70.85
2018-08-24T02:32:14.829Z,70.72
2018-08-24T02:34:42.685Z,70.16
2018-08-24T02:37:10.516Z,70.62
2018-08-24T02:39:38.635Z,70.83
2018-08-24T02:42:06.512Z,70.56
2018-08-24T02:44:34.379Z,70.61
2018-08-24T02:47:02.422Z,71.37
2018-08-24T02:49:30.254Z,71.13
2018-08-24T02:51:58.107Z,71.20
2018-08-24T02:54:26.040Z,70.92
2018-08-24T02:56:53.872Z,70.88
2018-08-24T02:59:21.764Z,71.19
2018-08-24T03:01:49.640Z,72.36
2018-08-24T03:04:17.609Z,72.07
2018-08-24T03:06:45.483Z,72.63
2018-08-24T03:09:13.776Z,73.42
2018-08-24T03:11:41.662Z,73.13
2018-08-24T03:14:09.604Z,72.88
2018-08-24T03:16:37.477Z,73.38
2018-08-24T03:19:05.330Z,73.53
2018-08-24T03:21:33.224Z,73.28
2018-08-24T03:24:01.049Z,73.55
2018-08-24T03:26:28.947Z,73.34
2018-08-24T03:28:56.879Z,73.06
2018-08-24T03:31:24.866Z,73.25
2018-08-24T03:33:52.673Z,74.12
2018-08-24T03:36:20.550Z,74.64
2018-08-24T03:38:48.464Z,75.15
2018-08-24T03:41:16.536Z,76.81
2018-08-24T03:43:44.407Z,76.71
2018-08-24T03:46:12.327Z,77.51
2018-08-24T03:48:40.124Z,77.94
2018-08-24T03:51:08.036Z,77.29
2018-08-24T03:53:35.866Z,77.43
2018-08-24T03:56:03.870Z,76.10
2018-08-24T03:58:31.755Z,76.61
2018-08-24T04:00:59.762Z,76.80
2018-08-24T04:03:28.793Z,77.25
2018-08-24T04:05:56.710Z,77.71
2018-08-24T04:08:24.588Z,76.72
2018-08-24T04:10:52.521Z,77.99
2018-08-24T04:13:20.349Z,78.30
2018-08-24T04:15:48.253Z,78.08
2018-08-24T04:18:16.229Z,77.69
2018-08-24T04:20:44.508Z,77.98
2018-08-24T04:23:12.442Z,78.00
2018-08-24T04:25:40.345Z,77.90
2018-08-24T04:28:08.178Z,78.51
2018-08-24T04:30:36.209Z,78.50
2018-08-24T04:33:04.018Z,78.58
2018-08-24T04:35:32.041Z,78.93
2018-08-24T04:37:59.863Z,78.83
2018-08-24T04:40:28.246Z,78.87
2018-08-24T04:42:55.982Z,78.67
2018-08-24T04:45:23.802Z,78.22
2018-08-24T04:47:51.795Z,78.32
2018-08-24T04:50:19.745Z,78.56
2018-08-24T04:52:47.660Z,77.78
2018-08-24T04:55:15.577Z,76.97
2018-08-24T04:57:43.554Z,77.20
2018-08-24T05:00:11.735Z,78.15
2018-08-24T05:02:39.910Z,77.80
2018-08-24T05:05:08.773Z,77.27
2018-08-24T05:07:36.712Z,77.16
2018-08-24T05:10:04.902Z,76.40
2018-08-24T05:12:32.892Z,76.85
2018-08-24T05:15:01.103Z,77.01
2018-08-24T05:17:29.533Z,75.45
2018-08-24T05:19:57.568Z,75.83
2018-08-24T05:22:25.832Z,74.48
2018-08-24T05:24:54.169Z,73.25
2018-08-24T05:27:22.165Z,71.25
2018-08-24T05:29:50.228Z,69.90
2018-08-24T05:32:18.237Z,68.51
2018-08-24T05:34:46.524Z,68.34
2018-08-24T05:37:14.654Z,67.08
2018-08-24T05:39:42.815Z,64.13
2018-08-24T05:42:11.294Z,62.11
2018-08-24T05:44:39.502Z,62.93
2018-08-24T05:47:07.681Z,63.94
2018-08-24T05:52:03.047Z,65.41
2018-08-24T05:54:31.258Z,65.80
2018-08-24T05:56:59.351Z,65.92
2018-08-24T05:59:27.305Z,66.40
2018-08-24T06:01:56.341Z,65.44
2018-08-24T06:04:24.689Z,65.12
2018-08-24T06:06:54.125Z,65.67
2018-08-24T06:09:22.466Z,66.21
2018-08-24T06:11:50.589Z,66.13
2018-08-24T06:14:18.665Z,66.60
2018-08-24T06:16:52.391Z,67.03
2018-08-24T06:19:21.502Z,68.10
2018-08-24T06:21:51.152Z,67.45
2018-08-24T06:24:19.398Z,67.57
2018-08-24T06:26:47.848Z,67.66
2018-08-24T06:29:16.186Z,67.47
2018-08-24T06:31:44.547Z,68.54
2018-08-24T06:34:13.037Z,67.37
2018-08-24T06:36:41.197Z,67.36
2018-08-24T06:39:11.553Z,67.62
2018-08-24T06:41:40.164Z,67.03
2018-08-24T06:44:08.335Z,65.44
2018-08-24T06:46:37.884Z,66.37
2018-08-24T06:49:11.387Z,66.02
2018-08-24T06:51:39.754Z,67.29
2018-08-24T06:54:07.889Z,67.04
2018-08-24T06:56:36.055Z,67.14
2018-08-24T06:59:04.441Z,68.13
2018-08-24T07:01:32.611Z,67.24
2018-08-24T07:04:01.109Z,67.37
2018-08-24T07:06:29.335Z,68.29
2018-08-24T07:08:57.662Z,67.79
2018-08-24T07:11:25.731Z,67.84
2018-08-24T07:13:54.089Z,67.56
2018-08-24T07:16:22.223Z,66.76
2018-08-24T07:18:50.350Z,66.64
2018-08-24T07:21:18.422Z,65.86
2018-08-24T07:23:46.602Z,65.50
2018-08-24T07:26:15.131Z,65.27
2018-08-24T07:28:43.336Z,65.63
2018-08-24T07:31:11.686Z,65.57
2018-08-24T07:33:39.597Z,65.87
2018-08-24T07:36:07.793Z,65.23
2018-08-24T07:38:35.961Z,65.34
2018-08-24T07:41:04.378Z,64.81
2018-08-24T07:43:32.573Z,65.87
2018-08-24T07:46:00.736Z,65.88
2018-08-24T07:48:28.858Z,67.43
2018-08-24T07:50:57.221Z,66.81
2018-08-24T07:53:25.405Z,67.42
2018-08-24T07:55:53.818Z,67.29
2018-08-24T07:58:22.069Z,67.93
2018-08-24T08:00:50.458Z,66.80
2018-08-24T08:03:18.594Z,66.50
2018-08-24T08:05:46.777Z,66.96
2018-08-24T08:08:14.876Z,65.37
2018-08-24T08:10:42.937Z,65.02
2018-08-24T08:13:11.879Z,63.55
2018-08-24T08:15:40.303Z,62.88
2018-08-24T08:18:08.543Z,63.60
2018-08-24T08:20:36.638Z,62.96
2018-08-24T08:23:04.906Z,65.72
2018-08-24T08:25:33.063Z,65.30
2018-08-24T08:28:01.121Z,66.06
2018-08-24T08:30:29.332Z,64.86
2018-08-24T08:32:57.412Z,63.93
2018-08-24T08:35:25.715Z,63.72
2018-08-24T08:37:53.776Z,63.52
2018-08-24T08:40:21.976Z,62.97
2018-08-24T08:42:50.171Z,63.53
2018-08-24T08:45:18.483Z,64.65
2018-08-24T08:47:46.527Z,64.37
2018-08-24T08:50:14.480Z,64.37
2018-08-24T08:52:42.754Z,64.81
2018-08-24T08:55:10.929Z,65.24
2018-08-24T08:57:39.281Z,64.94
2018-08-24T09:00:07.650Z,65.59
2018-08-24T09:02:35.800Z,65.82
2018-08-24T09:05:04.145Z,65.00
2018-08-24T09:07:32.069Z,64.81
2018-08-24T09:10:00.157Z,64.96
2018-08-24T09:12:28.264Z,65.17
2018-08-24T09:14:56.473Z,64.40
2018-08-24T09:17:30.132Z,65.08
2018-08-24T09:20:03.572Z,65.46
2018-08-24T09:22:37.129Z,65.32
2018-08-24T09:25:10.775Z,65.55
2018-08-24T09:28:41.979Z,64.24
2018-08-24T09:31:15.648Z,64.00
2018-08-24T09:33:43.925Z,63.85
2018-08-24T09:36:17.506Z,64.27
2018-08-24T09:38:45.612Z,64.23
2018-08-24T09:41:13.820Z,62.75
2018-08-24T09:43:47.598Z,61.25
2018-08-24T09:46:15.766Z,60.41
2018-08-24T09:48:49.440Z,59.24
2018-08-24T09:51:22.944Z,57.63
2018-08-24T09:53:56.658Z,56.76
2018-08-24T09:56:25.141Z,56.53
2018-08-24T09:58:53.267Z,55.28
2018-08-24T10:01:26.988Z,54.55
2018-08-24T10:05:04.196Z,53.19
2018-08-24T10:07:33.783Z,52.02
2018-08-24T10:10:02.616Z,52.46
2018-08-24T10:12:34.940Z,52.14
2018-08-24T10:15:03.493Z,52.43
2018-08-24T10:17:34.205Z,53.59
2018-08-24T10:20:02.458Z,52.16
2018-08-24T10:22:31.260Z,51.97
2018-08-24T10:24:59.724Z,51.19
2018-08-24T10:27:29.135Z,50.30
2018-08-24T10:29:57.293Z,49.58
2018-08-24T10:32:25.536Z,48.04
2018-08-24T10:34:54.300Z,46.99
2018-08-24T10:37:22.515Z,48.12
2018-08-24T10:39:50.738Z,47.53
2018-08-24T10:42:18.958Z,48.12
2018-08-24T10:44:47.118Z,47.84
2018-08-24T10:47:15.269Z,47.27
2018-08-24T10:49:43.572Z,46.87
2018-08-24T10:52:11.695Z,46.98
2018-08-24T10:54:39.934Z,47.74
2018-08-24T10:57:08.087Z,48.93
2018-08-24T10:59:36.114Z,47.73
2018-08-24T11:02:04.332Z,46.77
2018-08-24T11:04:32.404Z,44.56
2018-08-24T11:07:00.510Z,46.67
2018-08-24T11:09:28.585Z,43.63
2018-08-24T11:11:56.830Z,42.25
2018-08-24T11:14:25.009Z,40.79
2018-08-24T11:16:53.291Z,40.11
2018-08-24T11:19:21.484Z,39.90
2018-08-24T11:21:49.823Z,40.63
2018-08-24T11:24:18.012Z,40.45
2018-08-24T11:26:46.189Z,39.87
2018-08-24T11:29:14.437Z,37.69
2018-08-24T11:31:42.749Z,39.82
2018-08-24T11:34:10.867Z,39.91
2018-08-24T11:36:38.975Z,40.22
2018-08-24T11:39:07.788Z,41.47
2018-08-24T11:41:35.985Z,40.89
2018-08-24T11:44:04.242Z,40.94
2018-08-24T11:46:32.820Z,41.73
2018-08-24T11:49:01.062Z,40.82
2018-08-24T11:51:29.212Z,41.57
2018-08-24T11:53:57.367Z,40.64
2018-08-24T11:56:25.528Z,39.92
2018-08-24T11:58:53.608Z,40.79
2018-08-24T12:01:21.928Z,40.34
2018-08-24T12:03:50.028Z,40.49
2018-08-24T12:06:18.294Z,39.84
2018-08-24T12:08:46.492Z,39.11
2018-08-24T12:11:14.558Z,38.72
2018-08-24T12:13:42.780Z,39.23
2018-08-24T12:16:10.925Z,38.86
2018-08-24T12:18:39.178Z,37.37
2018-08-24T12:21:07.328Z,37.23
2018-08-24T12:23:35.643Z,36.80
2018-08-24T12:26:03.713Z,37.03
2018-08-24T12:28:31.935Z,39.13
2018-08-24T12:31:00.064Z,38.77
2018-08-24T12:33:28.341Z,37.77
2018-08-24T12:35:56.560Z,38.32
2018-08-24T12:38:25.771Z,37.80
2018-08-24T12:40:54.149Z,37.39
2018-08-24T12:43:22.560Z,37.49
2018-08-24T12:45:50.968Z,36.39
2018-08-24T12:48:19.086Z,37.47
2018-08-24T12:50:47.436Z,36.26
2018-08-24T12:53:15.554Z,36.88
2018-08-24T12:56:00.543Z,39.34
2018-08-24T12:58:29.743Z,39.58
2018-08-24T13:00:58.797Z,39.51
2018-08-24T13:03:34.947Z,39.18
2018-08-24T13:06:03.428Z,39.22
2018-08-24T13:08:33.665Z,38.84
2018-08-24T13:11:02.373Z,38.56
2018-08-24T13:13:49.073Z,39.04
2018-08-24T13:16:25.272Z,38.56
2018-08-24T13:18:54.026Z,38.75
2018-08-24T13:21:22.591Z,37.69
2018-08-24T13:23:51.171Z,37.67
2018-08-24T13:26:19.415Z,37.36
2018-08-24T13:31:45.841Z,37.30
2018-08-24T13:34:15.200Z,37.81
2018-08-24T13:36:44.200Z,38.18
2018-08-24T13:39:13.052Z,37.96
2018-08-24T13:44:17.804Z,38.53
2018-08-24T13:47:35.375Z,38.72
2018-08-24T13:50:10.457Z,37.14
2018-08-24T13:52:54.592Z,36.74
2018-08-24T13:55:24.298Z,37.10
2018-08-24T13:57:53.799Z,37.47
2018-08-24T14:01:52.574Z,37.08
2018-08-24T14:04:22.061Z,38.01
2018-08-24T14:06:50.606Z,39.04
2018-08-24T14:09:19.163Z,38.83
2018-08-24T14:14:40.326Z,38.77
2018-08-24T14:17:21.154Z,38.40
2018-08-24T14:19:51.674Z,38.35
2018-08-24T14:22:23.173Z,38.30
2018-08-24T14:25:02.030Z,38.17
2018-08-24T14:27:37.367Z,39.18
2018-08-24T14:30:06.373Z,37.78
2018-08-24T14:32:42.262Z,37.93
2018-08-24T14:35:11.865Z,37.94
2018-08-24T14:37:42.356Z,37.71
2018-08-24T14:40:15.563Z,36.99
2018-08-24T14:42:43.804Z,36.66
2018-08-24T14:45:17.411Z,37.22
2018-08-24T14:48:09.376Z,36.79
2018-08-24T14:53:31.394Z,36.89
2018-08-24T14:56:01.195Z,37.07
2018-08-24T14:58:49.843Z,36.86
2018-08-24T15:01:35.661Z,37.29
2018-08-24T15:04:10.422Z,36.76
2018-08-24T20:06:35.731Z,48.16
2018-08-24T20:09:12.586Z,48.44
2018-08-24T20:11:40.805Z,48.52
2018-08-24T20:14:08.962Z,48.23
2018-08-24T20:16:42.453Z,48.57
2018-08-24T20:19:10.522Z,48.73
2018-08-24T20:21:38.633Z,49.24
2018-08-24T20:24:06.985Z,48.81
2018-08-24T20:26:35.076Z,49.16
2018-08-24T20:29:03.145Z,49.13
2018-08-24T20:31:31.504Z,49.24
2018-08-24T20:33:59.707Z,48.51
2018-08-24T20:36:27.775Z,48.41
2018-08-24T20:38:55.852Z,48.00
2018-08-24T20:41:23.903Z,48.50
2018-08-24T20:43:52.887Z,48.52
2018-08-24T20:46:21.025Z,48.62
2018-08-24T20:48:49.362Z,47.81
2018-08-24T20:51:26.624Z,47.83
2018-08-24T20:53:54.823Z,48.33
2018-08-24T20:56:23.047Z,48.25
2018-08-24T20:58:51.170Z,47.30
2018-08-24T21:01:19.524Z,47.92
2018-08-24T21:03:47.733Z,48.00
2018-08-24T21:06:16.067Z,47.92
2018-08-24T21:08:44.250Z,47.78
2018-08-24T21:11:12.289Z,48.23
2018-08-24T21:13:40.588Z,48.67
2018-08-24T21:16:08.662Z,48.13
2018-08-24T21:18:36.946Z,48.50
2018-08-24T21:21:05.164Z,48.09
2018-08-24T21:23:33.390Z,48.79
2018-08-24T21:26:01.594Z,48.84
2018-08-24T21:28:29.730Z,48.61
2018-08-24T21:30:57.993Z,48.82
2018-08-24T21:33:26.086Z,49.25
2018-08-24T21:35:54.187Z,48.88
2018-08-24T21:38:22.207Z,49.32
2018-08-24T21:40:50.328Z,49.38
2018-08-24T21:43:18.450Z,49.65
2018-08-24T21:45:46.588Z,48.78
2018-08-24T21:48:14.608Z,49.73
2018-08-24T21:50:42.747Z,49.13
2018-08-24T21:53:10.837Z,49.72
2018-08-24T21:55:39.204Z,49.66
2018-08-24T21:58:07.409Z,49.33
2018-08-24T22:00:40.972Z,49.83
2018-08-24T22:03:09.916Z,49.83
2018-08-24T22:05:38.084Z,49.88
2018-08-24T22:08:06.342Z,49.82
2018-08-24T22:10:34.762Z,50.49
2018-08-24T22:13:02.906Z,50.99
2018-08-24T22:15:31.504Z,50.88
2018-08-24T22:17:59.527Z,50.85
2018-08-24T22:20:27.652Z,50.55
2018-08-24T22:22:55.713Z,51.13
2018-08-24T22:25:23.783Z,51.70
2018-08-24T22:27:51.971Z,51.62
2018-08-24T22:30:20.153Z,51.27
2018-08-24T22:32:48.362Z,52.04
2018-08-24T22:35:16.542Z,51.79
2018-08-24T22:37:44.612Z,52.13
2018-08-24T22:40:12.730Z,52.10
2018-08-24T22:42:42.731Z,51.86
2018-08-24T22:45:11.955Z,52.84
2018-08-24T22:47:39.951Z,52.27
2018-08-24T22:50:08.036Z,53.02
2018-08-24T22:52:36.014Z,53.45
2018-08-24T22:55:04.265Z,53.52
2018-08-24T22:57:32.235Z,52.86
2018-08-24T23:00:00.368Z,52.82
2018-08-24T23:02:28.438Z,53.38
2018-08-24T23:04:56.593Z,53.36
2018-08-24T23:07:24.773Z,53.06
2018-08-24T23:09:52.936Z,52.82
2018-08-24T23:12:21.976Z,53.39
2018-08-24T23:14:50.064Z,53.54
2018-08-24T23:17:18.164Z,54.17
2018-08-24T23:19:46.146Z,54.44
2018-08-24T23:22:14.155Z,54.05
2018-08-24T23:24:42.123Z,54.31
2018-08-24T23:27:10.138Z,54.86
2018-08-24T23:29:38.293Z,54.63
2018-08-24T23:32:06.488Z,54.99
2018-08-24T23:34:34.565Z,55.39
2018-08-24T23:37:02.762Z,55.17
2018-08-24T23:39:31.065Z,55.14
2018-08-24T23:41:59.087Z,55.22
2018-08-24T23:44:27.294Z,55.98
2018-08-24T23:46:55.375Z,55.93
2018-08-24T23:49:23.364Z,55.20
2018-08-24T23:51:51.349Z,55.65
2018-08-24T23:54:19.377Z,56.31
2018-08-24T23:56:47.455Z,55.86
2018-08-24T23:59:15.401Z,55.82
